createdAt,value
2019-03-19T00:00:50.908Z,22.33
2019-03-19T00:01:50.939Z,22.30
2019-03-19T00:02:50.895Z,22.33
2019-03-19T00:03:50.851Z,22.32
2019-03-19T00:04:50.837Z,22.36
2019-03-19T00:05:50.821Z,22.32
2019-03-19T00:06:50.828Z,22.32
2019-03-19T00:07:50.799Z,22.33
2019-03-19T00:08:50.818Z,22.33
2019-03-19T00:09:50.776Z,22.32
2019-03-19T00:10:50.770Z,22.30
2019-03-19T00:11:50.787Z,22.32
2019-03-19T00:12:50.745Z,22.30
2019-03-19T00:13:50.753Z,22.32
2019-03-19T00:14:50.723Z,22.33
2019-03-19T00:15:50.762Z,22.32
2019-03-19T00:16:50.726Z,22.28
2019-03-19T00:17:50.753Z,22.30
2019-03-19T00:18:50.711Z,22.30
2019-03-19T00:19:50.678Z,22.23
2019-03-19T00:20:50.662Z,22.28
2019-03-19T00:21:50.647Z,22.35
2019-03-19T00:22:50.641Z,22.30
2019-03-19T00:23:50.663Z,22.32
2019-03-19T00:24:50.616Z,22.32
2019-03-19T00:25:52.943Z,22.23
2019-03-19T00:26:50.600Z,22.32
2019-03-19T00:27:50.597Z,22.33
2019-03-19T00:28:50.576Z,22.30
2019-03-19T00:29:50.563Z,22.26
2019-03-19T00:30:50.556Z,22.25
2019-03-19T00:31:50.550Z,22.29
2019-03-19T00:32:50.523Z,22.28
2019-03-19T00:33:50.529Z,22.30
2019-03-19T00:34:50.516Z,22.28
2019-03-19T00:35:50.491Z,22.17
2019-03-19T00:36:50.491Z,22.30
2019-03-19T00:37:50.472Z,22.33
2019-03-19T00:38:50.480Z,22.32
2019-03-19T00:39:50.447Z,22.30
2019-03-19T00:40:50.436Z,22.28
2019-03-19T00:41:50.434Z,22.35
2019-03-19T00:42:50.414Z,22.33
2019-03-19T00:43:50.434Z,22.25
2019-03-19T00:44:50.396Z,22.29
2019-03-19T00:45:50.380Z,22.29
2019-03-19T00:46:50.397Z,22.28
2019-03-19T00:47:50.358Z,22.29
2019-03-19T00:48:50.389Z,22.29
2019-03-19T00:49:50.348Z,22.26
2019-03-19T00:50:50.355Z,22.30
2019-03-19T00:51:50.318Z,22.32
2019-03-19T00:52:50.317Z,22.28
2019-03-19T00:53:50.314Z,22.26
2019-03-19T00:54:50.281Z,22.33
2019-03-19T00:55:50.274Z,22.26
2019-03-19T00:56:50.268Z,22.33
2019-03-19T00:57:50.342Z,22.33
2019-03-19T00:58:50.275Z,22.25
2019-03-19T00:59:50.235Z,22.33
2019-03-19T01:00:50.239Z,22.33
2019-03-19T01:01:50.289Z,22.30
2019-03-19T01:02:50.233Z,22.33
2019-03-19T01:03:50.199Z,22.30
2019-03-19T01:04:50.178Z,22.29
2019-03-19T01:05:50.170Z,22.25
2019-03-19T01:06:50.167Z,22.29
2019-03-19T01:07:50.145Z,22.32
2019-03-19T01:08:50.149Z,22.29
2019-03-19T01:09:50.125Z,22.25
2019-03-19T01:10:50.117Z,22.28
2019-03-19T01:11:50.095Z,22.28
2019-03-19T01:12:50.108Z,22.29
2019-03-19T01:13:50.102Z,22.25
2019-03-19T01:14:50.069Z,22.30
2019-03-19T01:15:50.059Z,22.32
2019-03-19T01:16:50.043Z,22.26
2019-03-19T01:17:50.042Z,22.25
2019-03-19T01:18:50.038Z,22.20
2019-03-19T01:19:50.017Z,22.28
2019-03-19T01:20:50.054Z,22.25
2019-03-19T01:21:49.987Z,22.28
2019-03-19T01:22:50.015Z,22.25
2019-03-19T01:23:49.983Z,22.20
2019-03-19T01:24:49.994Z,22.22
2019-03-19T01:25:55.689Z,22.25
2019-03-19T01:26:50.927Z,22.28
2019-03-19T01:27:49.921Z,22.29
2019-03-19T01:28:49.965Z,22.23
2019-03-19T01:29:49.897Z,22.23
2019-03-19T01:30:49.894Z,22.25
2019-03-19T01:31:49.926Z,22.22
2019-03-19T01:32:49.866Z,22.25
2019-03-19T01:33:49.889Z,22.20
2019-03-19T01:34:49.848Z,22.15
2019-03-19T01:35:49.834Z,22.26
2019-03-19T01:36:49.879Z,22.14
2019-03-19T01:37:49.810Z,22.18
2019-03-19T01:38:49.812Z,22.28
2019-03-19T01:39:49.795Z,22.29
2019-03-19T01:40:49.774Z,22.22
2019-03-19T01:41:49.814Z,22.17
2019-03-19T01:42:49.756Z,22.22
2019-03-19T01:43:49.758Z,22.11
2019-03-19T01:44:49.740Z,22.14
2019-03-19T01:45:49.802Z,22.14
2019-03-19T01:46:49.716Z,22.28
2019-03-19T01:47:49.697Z,22.25
2019-03-19T01:48:49.734Z,22.17
2019-03-19T01:49:49.677Z,22.20
2019-03-19T01:50:49.674Z,22.22
2019-03-19T01:51:49.655Z,22.23
2019-03-19T01:52:49.677Z,22.20
2019-03-19T01:53:49.635Z,22.20
2019-03-19T01:54:49.637Z,22.17
2019-03-19T01:55:49.614Z,22.20
2019-03-19T01:56:49.598Z,22.15
2019-03-19T01:57:49.605Z,22.17
2019-03-19T01:58:49.584Z,22.22
2019-03-19T01:59:49.578Z,22.26
2019-03-19T02:00:49.555Z,22.20
2019-03-19T02:01:49.566Z,22.17
2019-03-19T02:02:49.532Z,22.17
2019-03-19T02:03:49.520Z,22.15
2019-03-19T02:04:49.522Z,22.14
2019-03-19T02:05:49.500Z,22.17
2019-03-19T02:06:49.520Z,22.15
2019-03-19T02:07:49.483Z,22.22
2019-03-19T02:08:49.467Z,22.17
2019-03-19T02:09:49.464Z,22.15
2019-03-19T02:10:49.445Z,22.20
2019-03-19T02:11:49.432Z,22.11
2019-03-19T02:12:49.424Z,22.20
2019-03-19T02:13:49.415Z,22.17
2019-03-19T02:14:49.413Z,22.15
2019-03-19T02:15:49.400Z,22.22
2019-03-19T02:16:49.386Z,22.17
2019-03-19T02:17:49.367Z,22.13
2019-03-19T02:18:49.357Z,22.15
2019-03-19T02:19:49.359Z,22.13
2019-03-19T02:20:49.342Z,22.11
2019-03-19T02:21:49.323Z,22.25
2019-03-19T02:22:49.320Z,22.11
2019-03-19T02:23:49.303Z,22.15
2019-03-19T02:24:49.381Z,22.15
2019-03-19T02:25:49.284Z,22.14
2019-03-19T02:26:49.271Z,22.18
2019-03-19T02:27:49.261Z,22.23
2019-03-19T02:28:49.259Z,22.14
2019-03-19T02:29:49.284Z,22.17
2019-03-19T02:30:49.230Z,22.14
2019-03-19T02:31:49.306Z,22.26
2019-03-19T02:32:49.214Z,22.17
2019-03-19T02:33:49.191Z,22.17
2019-03-19T02:34:49.195Z,22.22
2019-03-19T02:35:49.177Z,22.17
2019-03-19T02:36:49.163Z,22.22
2019-03-19T02:37:49.200Z,22.22
2019-03-19T02:38:49.189Z,22.26
2019-03-19T02:39:49.137Z,22.23
2019-03-19T02:40:49.121Z,22.20
2019-03-19T02:41:49.107Z,22.23
2019-03-19T02:42:49.105Z,22.20
2019-03-19T02:43:49.196Z,22.14
2019-03-19T02:44:49.100Z,22.18
2019-03-19T02:45:49.060Z,22.22
2019-03-19T02:46:49.058Z,22.23
2019-03-19T02:47:49.058Z,22.17
2019-03-19T02:48:49.028Z,22.10
2019-03-19T02:49:49.030Z,22.20
2019-03-19T02:50:49.003Z,22.22
2019-03-19T02:51:48.993Z,22.13
2019-03-19T02:52:48.989Z,22.15
2019-03-19T02:53:48.981Z,22.13
2019-03-19T02:54:48.998Z,22.18
2019-03-19T02:55:48.978Z,22.11
2019-03-19T02:56:48.941Z,22.14
2019-03-19T02:57:48.927Z,22.13
2019-03-19T02:58:48.919Z,22.23
2019-03-19T02:59:48.922Z,22.23
2019-03-19T03:00:48.906Z,22.08
2019-03-19T03:01:48.945Z,22.25
2019-03-19T03:02:48.877Z,22.11
2019-03-19T03:03:48.865Z,22.17
2019-03-19T03:04:48.861Z,22.13
2019-03-19T03:05:48.892Z,22.11
2019-03-19T03:06:48.843Z,22.18
2019-03-19T03:07:48.832Z,22.13
2019-03-19T03:08:48.824Z,22.17
2019-03-19T03:09:48.821Z,22.13
2019-03-19T03:10:48.790Z,22.20
2019-03-19T03:11:48.817Z,22.14
2019-03-19T03:12:48.770Z,22.10
2019-03-19T03:13:48.751Z,22.10
2019-03-19T03:14:48.753Z,22.06
2019-03-19T03:15:48.736Z,22.10
2019-03-19T03:16:48.738Z,22.08
2019-03-19T03:17:48.796Z,22.13
2019-03-19T03:18:48.708Z,22.14
2019-03-19T03:19:48.703Z,22.11
2019-03-19T03:20:48.716Z,22.10
2019-03-19T03:21:48.680Z,22.18
2019-03-19T03:22:48.658Z,22.14
2019-03-19T03:23:48.650Z,22.07
2019-03-19T03:24:48.684Z,22.14
2019-03-19T03:25:48.619Z,22.08
2019-03-19T03:26:48.970Z,22.14
2019-03-19T03:27:48.672Z,22.10
2019-03-19T03:28:48.587Z,22.08
2019-03-19T03:29:48.595Z,22.15
2019-03-19T03:30:48.585Z,22.13
2019-03-19T03:31:48.674Z,22.13
2019-03-19T03:32:48.555Z,22.10
2019-03-19T03:33:48.564Z,22.11
2019-03-19T03:34:48.549Z,22.07
2019-03-19T03:35:48.509Z,22.13
2019-03-19T03:36:48.500Z,22.06
2019-03-19T03:37:48.505Z,22.13
2019-03-19T03:38:48.475Z,22.14
2019-03-19T03:39:48.463Z,22.14
2019-03-19T03:40:48.461Z,22.14
2019-03-19T03:41:48.446Z,22.17
2019-03-19T03:42:48.435Z,22.13
2019-03-19T03:43:48.426Z,22.13
2019-03-19T03:44:48.416Z,22.13
2019-03-19T03:45:48.510Z,22.10
2019-03-19T03:46:48.470Z,22.10
2019-03-19T03:47:48.396Z,22.14
2019-03-19T03:48:48.367Z,22.14
2019-03-19T03:49:48.354Z,22.07
2019-03-19T03:50:48.419Z,22.10
2019-03-19T03:51:48.344Z,22.08
2019-03-19T03:52:48.401Z,22.07
2019-03-19T03:53:48.360Z,22.11
2019-03-19T03:54:48.305Z,22.13
2019-03-19T03:55:48.408Z,22.10
2019-03-19T03:57:01.423Z,22.10
2019-03-19T03:57:49.316Z,22.14
2019-03-19T03:58:59.926Z,22.14
2019-03-19T03:59:49.257Z,22.08
2019-03-19T04:00:48.244Z,22.11
2019-03-19T04:01:48.235Z,22.14
2019-03-19T04:02:48.268Z,22.10
2019-03-19T04:03:48.203Z,22.11
2019-03-19T04:04:48.196Z,22.14
2019-03-19T04:05:48.193Z,22.07
2019-03-19T04:06:48.175Z,22.07
2019-03-19T04:07:48.169Z,22.10
2019-03-19T04:08:48.154Z,22.08
2019-03-19T04:09:48.153Z,22.13
2019-03-19T04:10:48.153Z,22.08
2019-03-19T04:11:48.114Z,22.14
2019-03-19T04:12:48.108Z,22.11
2019-03-19T04:13:48.110Z,22.14
2019-03-19T04:14:48.081Z,22.10
2019-03-19T04:15:48.079Z,22.11
2019-03-19T04:16:48.068Z,22.10
2019-03-19T04:17:48.049Z,22.13
2019-03-19T04:18:48.045Z,22.10
2019-03-19T04:19:48.030Z,22.04
2019-03-19T04:20:48.037Z,22.07
2019-03-19T04:21:48.003Z,22.10
2019-03-19T04:22:47.999Z,22.10
2019-03-19T04:23:47.998Z,22.08
2019-03-19T04:24:47.968Z,22.07
2019-03-19T04:25:47.993Z,22.06
2019-03-19T04:26:47.949Z,22.10
2019-03-19T04:27:47.937Z,22.11
2019-03-19T04:28:47.931Z,22.08
2019-03-19T04:29:47.913Z,22.07
2019-03-19T04:30:47.914Z,22.08
2019-03-19T04:31:47.893Z,22.11
2019-03-19T04:32:47.909Z,22.13
2019-03-19T04:33:47.882Z,22.11
2019-03-19T04:34:47.892Z,22.14
2019-03-19T04:35:47.860Z,22.15
2019-03-19T04:36:47.849Z,22.08
2019-03-19T04:37:47.841Z,22.11
2019-03-19T04:38:47.816Z,22.13
2019-03-19T04:39:47.803Z,22.13
2019-03-19T04:40:49.671Z,22.15
2019-03-19T04:41:47.784Z,22.07
2019-03-19T04:42:47.779Z,22.14
2019-03-19T04:43:47.765Z,22.07
2019-03-19T04:44:47.769Z,22.10
2019-03-19T04:45:47.760Z,22.18
2019-03-19T04:46:47.725Z,22.18
2019-03-19T04:47:47.719Z,22.14
2019-03-19T04:48:47.709Z,22.14
2019-03-19T04:49:47.702Z,22.13
2019-03-19T04:50:47.755Z,22.18
2019-03-19T04:51:47.688Z,22.10
2019-03-19T04:52:47.692Z,22.10
2019-03-19T04:53:47.649Z,22.11
2019-03-19T04:54:47.638Z,22.13
2019-03-19T04:55:47.639Z,22.08
2019-03-19T04:56:47.623Z,22.20
2019-03-19T04:57:47.612Z,22.13
2019-03-19T04:58:47.648Z,22.15
2019-03-19T04:59:47.636Z,22.06
2019-03-19T05:00:47.589Z,22.10
2019-03-19T05:01:47.565Z,22.10
2019-03-19T05:02:47.639Z,22.13
2019-03-19T05:03:47.540Z,22.10
2019-03-19T05:04:47.527Z,22.00
2019-03-19T05:05:47.526Z,22.07
2019-03-19T05:06:47.508Z,22.02
2019-03-19T05:07:47.524Z,21.93
2019-03-19T05:08:47.484Z,21.93
2019-03-19T05:09:47.481Z,21.92
2019-03-19T05:10:47.485Z,21.88
2019-03-19T05:11:47.458Z,21.88
2019-03-19T05:12:47.440Z,21.76
2019-03-19T05:13:47.447Z,21.76
2019-03-19T05:14:47.425Z,21.79
2019-03-19T05:15:47.412Z,21.75
2019-03-19T05:16:47.443Z,21.69
2019-03-19T05:17:47.410Z,21.67
2019-03-19T05:18:47.380Z,21.69
2019-03-19T05:19:47.362Z,21.69
2019-03-19T05:20:47.373Z,21.64
2019-03-19T05:21:47.356Z,21.64
2019-03-19T05:22:47.410Z,21.62
2019-03-19T05:23:47.342Z,21.60
2019-03-19T05:24:47.307Z,21.66
2019-03-19T05:25:47.313Z,21.66
2019-03-19T05:26:47.338Z,21.61
2019-03-19T05:27:47.307Z,21.67
2019-03-19T05:28:47.332Z,21.58
2019-03-19T05:29:47.273Z,21.55
2019-03-19T05:30:47.257Z,21.55
2019-03-19T05:31:47.230Z,21.66
2019-03-19T05:32:47.275Z,21.64
2019-03-19T05:33:47.212Z,21.55
2019-03-19T05:34:47.202Z,21.52
2019-03-19T05:35:47.201Z,21.52
2019-03-19T05:36:47.184Z,21.54
2019-03-19T05:37:47.240Z,21.60
2019-03-19T05:38:47.151Z,21.55
2019-03-19T05:39:47.144Z,21.46
2019-03-19T05:40:47.195Z,21.43
2019-03-19T05:41:47.124Z,21.50
2019-03-19T05:42:47.115Z,21.51
2019-03-19T05:43:47.097Z,21.52
2019-03-19T05:44:47.089Z,21.55
2019-03-19T05:45:47.105Z,21.57
2019-03-19T05:46:47.083Z,21.61
2019-03-19T05:47:47.057Z,21.62
2019-03-19T05:48:47.050Z,21.60
2019-03-19T05:49:47.031Z,21.61
2019-03-19T05:50:47.023Z,21.69
2019-03-19T05:51:47.030Z,21.67
2019-03-19T05:52:48.464Z,21.67
2019-03-19T05:53:47.016Z,21.70
2019-03-19T05:54:46.982Z,21.73
2019-03-19T05:55:47.002Z,21.75
2019-03-19T05:56:46.957Z,21.75
2019-03-19T05:57:50.004Z,21.73
2019-03-19T05:58:46.932Z,21.76
2019-03-19T05:59:46.923Z,21.76
2019-03-19T06:00:47.024Z,21.91
2019-03-19T06:01:46.918Z,21.83
2019-03-19T06:02:46.924Z,21.92
2019-03-19T06:03:46.881Z,21.85
2019-03-19T06:04:46.919Z,21.83
2019-03-19T06:05:46.859Z,21.89
2019-03-19T06:06:46.863Z,21.91
2019-03-19T06:07:46.846Z,21.91
2019-03-19T06:08:46.860Z,21.83
2019-03-19T06:09:46.815Z,21.85
2019-03-19T06:10:46.862Z,22.02
2019-03-19T06:11:46.815Z,22.04
2019-03-19T06:12:46.778Z,21.91
2019-03-19T06:13:46.777Z,21.99
2019-03-19T06:14:46.760Z,22.04
2019-03-19T06:15:46.773Z,21.93
2019-03-19T06:16:46.753Z,21.99
2019-03-19T06:17:46.751Z,22.07
2019-03-19T06:18:46.737Z,22.00
2019-03-19T06:19:46.699Z,22.06
2019-03-19T06:20:46.698Z,22.06
2019-03-19T06:21:46.694Z,22.04
2019-03-19T06:22:46.733Z,22.06
2019-03-19T06:23:46.658Z,21.98
2019-03-19T06:24:46.679Z,21.98
2019-03-19T06:25:46.641Z,22.04
2019-03-19T06:26:46.657Z,22.02
2019-03-19T06:27:46.646Z,22.08
2019-03-19T06:28:46.602Z,22.06
2019-03-19T06:29:46.600Z,22.11
2019-03-19T06:30:46.587Z,22.06
2019-03-19T06:31:46.577Z,22.11
2019-03-19T06:32:46.655Z,22.07
2019-03-19T06:33:48.227Z,22.10
2019-03-19T06:34:46.540Z,22.13
2019-03-19T06:35:46.527Z,22.06
2019-03-19T06:36:46.540Z,22.11
2019-03-19T06:37:46.508Z,22.07
2019-03-19T06:38:46.490Z,22.13
2019-03-19T06:39:46.480Z,22.14
2019-03-19T06:40:46.468Z,22.17
2019-03-19T06:41:46.495Z,22.13
2019-03-19T06:42:46.465Z,22.07
2019-03-19T06:43:46.440Z,22.06
2019-03-19T06:44:46.432Z,22.14
2019-03-19T06:45:46.420Z,22.10
2019-03-19T06:46:46.501Z,22.14
2019-03-19T06:47:46.491Z,22.08
2019-03-19T06:48:46.418Z,22.15
2019-03-19T06:49:46.370Z,22.13
2019-03-19T06:50:46.359Z,22.13
2019-03-19T06:51:46.360Z,22.14
2019-03-19T06:52:46.380Z,22.13
2019-03-19T06:53:46.382Z,22.07
2019-03-19T06:54:46.320Z,22.10
2019-03-19T06:55:46.307Z,22.22
2019-03-19T06:56:46.345Z,22.11
2019-03-19T06:57:46.311Z,22.14
2019-03-19T06:58:46.284Z,22.17
2019-03-19T06:59:46.266Z,22.23
2019-03-19T07:00:46.262Z,22.14
2019-03-19T07:01:46.328Z,22.18
2019-03-19T07:02:46.244Z,22.13
2019-03-19T07:03:46.224Z,22.17
2019-03-19T07:04:46.217Z,22.17
2019-03-19T07:05:46.234Z,22.13
2019-03-19T07:06:46.195Z,22.13
2019-03-19T07:07:46.187Z,22.11
2019-03-19T07:08:46.171Z,22.10
2019-03-19T07:09:46.181Z,22.11
2019-03-19T07:10:46.149Z,21.99
2019-03-19T07:11:46.215Z,22.10
2019-03-19T07:12:46.160Z,21.99
2019-03-19T07:13:46.165Z,22.08
2019-03-19T07:14:46.114Z,22.06
2019-03-19T07:15:46.110Z,21.96
2019-03-19T07:16:46.075Z,21.99
2019-03-19T07:17:46.101Z,22.07
2019-03-19T07:18:46.099Z,21.96
2019-03-19T07:19:46.066Z,22.00
2019-03-19T07:20:46.032Z,21.98
2019-03-19T07:21:46.075Z,22.00
2019-03-19T07:22:46.035Z,21.98
2019-03-19T07:23:46.029Z,21.95
2019-03-19T07:24:48.055Z,22.07
2019-03-19T07:25:46.011Z,21.98
2019-03-19T07:26:45.964Z,22.10
2019-03-19T07:27:45.995Z,21.93
2019-03-19T07:28:45.952Z,21.96
2019-03-19T07:29:45.946Z,21.99
2019-03-19T07:30:45.958Z,22.04
2019-03-19T07:31:45.906Z,21.96
2019-03-19T07:32:45.965Z,21.96
2019-03-19T07:33:45.930Z,22.00
2019-03-19T07:34:45.884Z,22.04
2019-03-19T07:35:46.109Z,21.98
2019-03-19T07:36:45.919Z,21.98
2019-03-19T07:37:45.863Z,21.98
2019-03-19T07:38:45.852Z,22.02
2019-03-19T07:39:45.866Z,22.02
2019-03-19T07:40:45.865Z,22.00
2019-03-19T07:41:45.831Z,21.99
2019-03-19T07:42:45.820Z,22.00
2019-03-19T07:43:45.786Z,21.99
2019-03-19T07:44:45.771Z,22.00
2019-03-19T07:45:45.760Z,22.08
2019-03-19T07:46:46.132Z,22.08
2019-03-19T07:47:45.783Z,22.08
2019-03-19T07:48:45.719Z,22.06
2019-03-19T07:49:45.804Z,22.02
2019-03-19T07:50:45.724Z,22.07
2019-03-19T07:51:45.703Z,22.10
2019-03-19T07:52:45.701Z,22.13
2019-03-19T07:53:45.670Z,22.13
2019-03-19T07:54:45.657Z,22.10
2019-03-19T07:55:45.684Z,22.10
2019-03-19T07:56:45.698Z,22.11
2019-03-19T07:57:45.651Z,22.14
2019-03-19T07:58:45.858Z,22.11
2019-03-19T07:59:45.607Z,22.11
2019-03-19T08:00:45.596Z,22.06
2019-03-19T08:01:45.578Z,22.06
2019-03-19T08:02:45.604Z,22.14
2019-03-19T08:03:45.585Z,22.11
2019-03-19T08:04:45.555Z,22.20
2019-03-19T08:05:45.636Z,22.26
2019-03-19T08:06:45.528Z,22.22
2019-03-19T08:07:45.538Z,22.14
2019-03-19T08:08:45.525Z,22.14
2019-03-19T08:09:45.489Z,22.28
2019-03-19T08:10:45.521Z,22.14
2019-03-19T08:11:45.644Z,22.11
2019-03-19T08:12:45.478Z,22.20
2019-03-19T08:13:45.544Z,22.25
2019-03-19T08:14:45.494Z,22.23
2019-03-19T08:15:45.517Z,22.30
2019-03-19T08:16:45.409Z,22.32
2019-03-19T08:17:45.435Z,22.29
2019-03-19T08:18:45.404Z,22.30
2019-03-19T08:19:45.398Z,22.30
2019-03-19T08:20:45.383Z,22.20
2019-03-19T08:21:45.382Z,22.29
2019-03-19T08:22:45.358Z,22.28
2019-03-19T08:23:45.392Z,22.23
2019-03-19T08:24:45.365Z,22.28
2019-03-19T08:25:45.334Z,22.29
2019-03-19T08:26:45.312Z,22.28
2019-03-19T08:27:45.345Z,22.30
2019-03-19T08:28:54.919Z,22.32
2019-03-19T08:29:46.352Z,22.36
2019-03-19T08:30:45.265Z,22.35
2019-03-19T08:31:45.244Z,22.29
2019-03-19T08:32:45.288Z,22.36
2019-03-19T08:33:45.269Z,22.38
2019-03-19T08:34:45.234Z,22.35
2019-03-19T08:35:45.210Z,22.38
2019-03-19T08:36:45.199Z,22.43
2019-03-19T08:37:45.266Z,22.43
2019-03-19T08:38:45.191Z,22.38
2019-03-19T08:39:45.162Z,22.43
2019-03-19T08:40:45.152Z,22.39
2019-03-19T08:41:45.207Z,22.41
2019-03-19T08:42:45.182Z,22.43
2019-03-19T08:43:45.127Z,22.39
2019-03-19T08:44:45.154Z,22.38
2019-03-19T08:45:45.127Z,22.38
2019-03-19T08:46:45.140Z,22.33
2019-03-19T08:47:45.072Z,22.32
2019-03-19T08:48:45.072Z,22.23
2019-03-19T08:49:45.107Z,22.15
2019-03-19T08:50:45.107Z,22.18
2019-03-19T08:51:45.067Z,22.10
2019-03-19T08:52:45.013Z,22.10
2019-03-19T08:53:45.056Z,22.07
2019-03-19T08:54:45.051Z,21.99
2019-03-19T08:55:44.984Z,21.80
2019-03-19T08:56:44.994Z,21.77
2019-03-19T08:57:45.044Z,21.75
2019-03-19T08:58:45.011Z,21.55
2019-03-19T08:59:44.980Z,21.57
2019-03-19T09:00:44.951Z,21.57
2019-03-19T09:01:47.224Z,21.48
2019-03-19T09:02:44.918Z,21.51
2019-03-19T09:03:44.960Z,21.58
2019-03-19T09:04:44.928Z,21.48
2019-03-19T09:05:44.878Z,21.66
2019-03-19T09:06:44.871Z,21.69
2019-03-19T09:07:44.894Z,21.70
2019-03-19T09:08:44.926Z,21.69
2019-03-19T09:09:44.840Z,21.72
2019-03-19T09:10:44.827Z,21.76
2019-03-19T09:11:44.878Z,21.76
2019-03-19T09:12:44.834Z,21.88
2019-03-19T09:13:44.823Z,21.89
2019-03-19T09:14:44.863Z,21.89
2019-03-19T09:15:44.763Z,21.98
2019-03-19T09:16:44.748Z,21.99
2019-03-19T09:17:44.746Z,21.98
2019-03-19T09:18:44.736Z,22.02
2019-03-19T09:19:44.736Z,22.08
2019-03-19T09:20:44.752Z,22.10
2019-03-19T09:21:44.713Z,22.06
2019-03-19T09:22:44.688Z,22.07
2019-03-19T09:23:44.720Z,22.11
2019-03-19T09:24:44.673Z,22.15
2019-03-19T09:25:44.659Z,22.18
2019-03-19T09:26:44.645Z,22.10
2019-03-19T09:27:44.679Z,22.14
2019-03-19T09:28:44.751Z,22.13
2019-03-19T09:29:44.660Z,22.14
2019-03-19T09:30:44.628Z,22.22
2019-03-19T09:31:44.639Z,22.22
2019-03-19T09:32:44.677Z,22.25
2019-03-19T09:33:44.590Z,22.29
2019-03-19T09:34:44.571Z,22.33
2019-03-19T09:35:44.599Z,22.32
2019-03-19T09:36:44.590Z,22.30
2019-03-19T09:37:53.661Z,22.22
2019-03-19T09:38:45.613Z,22.29
2019-03-19T09:39:44.547Z,22.30
2019-03-19T09:40:44.672Z,22.29
2019-03-19T09:41:44.623Z,22.30
2019-03-19T09:42:44.531Z,22.35
2019-03-19T09:43:44.510Z,22.39
2019-03-19T09:44:44.541Z,22.35
2019-03-19T09:45:44.487Z,22.38
2019-03-19T09:46:44.588Z,22.38
2019-03-19T09:47:44.409Z,22.35
2019-03-19T09:48:44.422Z,22.41
2019-03-19T09:49:44.385Z,22.35
2019-03-19T09:50:44.499Z,22.38
2019-03-19T09:51:44.379Z,22.44
2019-03-19T09:52:44.357Z,22.45
2019-03-19T09:53:44.565Z,22.44
2019-03-19T09:54:44.402Z,22.44
2019-03-19T09:55:44.372Z,22.41
2019-03-19T09:56:44.308Z,22.41
2019-03-19T09:57:44.312Z,22.45
2019-03-19T09:58:44.398Z,22.43
2019-03-19T09:59:44.629Z,22.48
2019-03-19T10:00:44.337Z,22.41
2019-03-19T10:01:44.273Z,22.47
2019-03-19T10:02:44.245Z,22.51
2019-03-19T10:03:44.240Z,22.44
2019-03-19T10:04:44.224Z,22.50
2019-03-19T10:05:44.217Z,22.55
2019-03-19T10:06:44.229Z,22.41
2019-03-19T10:07:44.207Z,22.55
2019-03-19T10:08:44.194Z,22.57
2019-03-19T10:09:44.242Z,22.54
2019-03-19T10:10:44.277Z,22.57
2019-03-19T10:11:44.228Z,22.55
2019-03-19T10:12:44.164Z,22.53
2019-03-19T10:13:44.206Z,22.54
2019-03-19T10:14:44.185Z,22.51
2019-03-19T10:15:44.140Z,22.59
2019-03-19T10:16:44.100Z,22.54
2019-03-19T10:17:44.114Z,22.59
2019-03-19T10:18:44.185Z,22.48
2019-03-19T10:19:44.057Z,22.60
2019-03-19T10:20:44.064Z,22.57
2019-03-19T10:21:44.136Z,22.51
2019-03-19T10:22:44.112Z,22.62
2019-03-19T10:23:44.025Z,22.70
2019-03-19T10:24:44.047Z,22.73
2019-03-19T10:25:44.020Z,22.68
2019-03-19T10:26:44.001Z,22.72
2019-03-19T10:27:43.972Z,22.76
2019-03-19T10:28:44.001Z,22.69
2019-03-19T10:29:44.025Z,22.75
2019-03-19T10:30:43.942Z,22.69
2019-03-19T10:31:43.950Z,22.75
2019-03-19T10:32:43.947Z,22.73
2019-03-19T10:33:43.947Z,22.73
2019-03-19T10:34:43.906Z,22.69
2019-03-19T10:35:43.892Z,22.73
2019-03-19T10:36:44.070Z,22.68
2019-03-19T10:37:43.915Z,22.68
2019-03-19T10:38:43.884Z,22.73
2019-03-19T10:39:43.848Z,22.72
2019-03-19T10:40:43.838Z,22.78
2019-03-19T10:41:43.907Z,22.70
2019-03-19T10:42:43.871Z,22.81
2019-03-19T10:43:43.810Z,22.84
2019-03-19T10:44:43.921Z,22.80
2019-03-19T10:45:43.780Z,22.73
2019-03-19T10:46:43.764Z,22.83
2019-03-19T10:47:43.766Z,22.69
2019-03-19T10:48:43.753Z,22.72
2019-03-19T10:49:43.759Z,22.85
2019-03-19T10:50:43.734Z,22.81
2019-03-19T10:51:43.763Z,22.83
2019-03-19T10:52:43.750Z,22.73
2019-03-19T10:53:43.708Z,22.76
2019-03-19T10:54:43.671Z,22.75
2019-03-19T10:55:43.680Z,22.78
2019-03-19T10:56:43.661Z,22.76
2019-03-19T10:57:43.660Z,22.76
2019-03-19T10:58:43.639Z,22.78
2019-03-19T10:59:49.149Z,22.80
2019-03-19T11:00:44.668Z,22.85
2019-03-19T11:01:43.594Z,22.81
2019-03-19T11:02:43.684Z,22.87
2019-03-19T11:03:43.626Z,22.80
2019-03-19T11:04:43.588Z,22.80
2019-03-19T11:05:43.569Z,22.93
2019-03-19T11:06:43.542Z,22.87
2019-03-19T11:07:43.536Z,22.80
2019-03-19T11:08:43.541Z,22.87
2019-03-19T11:09:43.520Z,22.90
2019-03-19T11:10:43.496Z,22.90
2019-03-19T11:11:43.617Z,22.88
2019-03-19T11:12:43.519Z,22.93
2019-03-19T11:13:43.479Z,22.88
2019-03-19T11:14:43.505Z,22.87
2019-03-19T11:15:43.449Z,22.91
2019-03-19T11:16:43.478Z,22.87
2019-03-19T11:17:43.438Z,22.80
2019-03-19T11:18:43.409Z,22.84
2019-03-19T11:19:43.407Z,22.93
2019-03-19T11:20:45.471Z,22.81
2019-03-19T11:21:43.378Z,22.96
2019-03-19T11:22:43.381Z,22.88
2019-03-19T11:23:43.411Z,22.87
2019-03-19T11:24:43.348Z,22.84
2019-03-19T11:25:53.907Z,22.94
2019-03-19T11:26:44.321Z,22.91
2019-03-19T11:27:43.306Z,22.91
2019-03-19T11:28:43.302Z,22.90
2019-03-19T11:29:43.330Z,22.91
2019-03-19T11:30:43.308Z,23.00
2019-03-19T11:31:43.309Z,22.98
2019-03-19T11:32:43.322Z,22.98
2019-03-19T11:33:43.250Z,22.93
2019-03-19T11:34:43.246Z,22.94
2019-03-19T11:35:45.593Z,22.94
2019-03-19T11:36:43.219Z,22.96
2019-03-19T11:37:43.209Z,22.94
2019-03-19T11:38:43.202Z,22.90
2019-03-19T11:39:43.207Z,22.93
2019-03-19T11:40:43.194Z,22.96
2019-03-19T11:41:43.244Z,22.93
2019-03-19T11:42:43.148Z,22.96
2019-03-19T11:43:43.152Z,22.98
2019-03-19T11:44:43.128Z,22.93
2019-03-19T11:45:43.138Z,22.85
2019-03-19T11:46:43.107Z,22.85
2019-03-19T11:47:43.100Z,22.85
2019-03-19T11:48:43.227Z,22.88
2019-03-19T11:49:43.087Z,22.84
2019-03-19T11:50:43.080Z,22.90
2019-03-19T11:51:43.071Z,22.90
2019-03-19T11:52:43.136Z,22.96
2019-03-19T11:53:43.064Z,22.85
2019-03-19T11:54:43.046Z,22.90
2019-03-19T11:55:43.058Z,22.83
2019-03-19T11:56:43.021Z,22.85
2019-03-19T11:57:42.974Z,22.87
2019-03-19T11:58:43.136Z,22.93
2019-03-19T11:59:42.959Z,22.90
2019-03-19T12:00:42.942Z,22.94
2019-03-19T12:01:42.951Z,22.81
2019-03-19T12:02:42.927Z,22.88
2019-03-19T12:03:42.922Z,22.81
2019-03-19T12:04:42.922Z,22.72
2019-03-19T12:05:42.901Z,22.70
2019-03-19T12:06:42.876Z,22.73
2019-03-19T12:07:42.874Z,22.73
2019-03-19T12:08:42.928Z,22.66
2019-03-19T12:09:42.857Z,22.59
2019-03-19T12:10:42.837Z,22.59
2019-03-19T12:11:42.852Z,22.54
2019-03-19T12:12:42.810Z,22.59
2019-03-19T12:13:42.809Z,22.51
2019-03-19T12:14:42.808Z,22.47
2019-03-19T12:15:42.794Z,22.50
2019-03-19T12:16:42.840Z,22.54
2019-03-19T12:17:42.757Z,22.57
2019-03-19T12:18:42.766Z,22.59
2019-03-19T12:19:42.742Z,22.55
2019-03-19T12:20:42.731Z,22.55
2019-03-19T12:21:49.757Z,22.60
2019-03-19T12:22:42.846Z,22.54
2019-03-19T12:23:42.740Z,22.57
2019-03-19T12:24:43.052Z,22.57
2019-03-19T12:25:42.872Z,22.57
2019-03-19T12:26:42.662Z,22.60
2019-03-19T12:27:42.647Z,22.66
2019-03-19T12:28:42.653Z,22.68
2019-03-19T12:29:42.703Z,22.66
2019-03-19T12:30:42.710Z,22.70
2019-03-19T12:31:42.876Z,22.72
2019-03-19T12:32:42.690Z,22.75
2019-03-19T12:33:42.736Z,22.72
2019-03-19T12:34:42.859Z,22.73
2019-03-19T12:35:42.754Z,22.68
2019-03-19T12:36:42.596Z,22.72
2019-03-19T12:37:42.646Z,22.78
2019-03-19T12:38:42.719Z,22.69
2019-03-19T12:39:42.814Z,22.72
2019-03-19T12:40:42.585Z,22.78
2019-03-19T12:41:42.585Z,22.75
2019-03-19T12:42:42.497Z,22.75
2019-03-19T12:43:42.898Z,22.80
2019-03-19T12:44:42.482Z,22.76
2019-03-19T12:45:42.514Z,22.81
2019-03-19T12:46:42.439Z,22.78
2019-03-19T12:47:42.450Z,22.78
2019-03-19T12:48:43.050Z,22.78
2019-03-19T12:49:42.530Z,22.83
2019-03-19T12:50:42.500Z,22.78
2019-03-19T12:51:42.482Z,22.91
2019-03-19T12:52:42.400Z,22.90